sensor_id;sensor_type;location;lat;lon;timestamp;P1;durP1;ratioP1;P2;durP2;ratioP2
22632;SDS011;11483;55.828;37.488;2024-03-06T00:02:10;1.27;;;0.97;;
22632;SDS011;11483;55.828;37.488;2024-03-06T00:04:36;1.53;;;0.90;;
22632;SDS011;11483;55.828;37.488;2024-03-06T00:07:03;1.40;;;0.87;;
22632;SDS011;11483;55.828;37.488;2024-03-06T00:09:29;2.80;;;1.10;;
22632;SDS011;11483;55.828;37.488;2024-03-06T00:11:55;1.10;;;1.00;;
22632;SDS011;11483;55.828;37.488;2024-03-06T00:14:22;4.53;;;1.10;;
22632;SDS011;11483;55.828;37.488;2024-03-06T00:16:49;1.47;;;1.30;;
22632;SDS011;11483;55.828;37.488;2024-03-06T00:19:16;2.77;;;1.20;;
22632;SDS011;11483;55.828;37.488;2024-03-06T00:21:43;3.60;;;0.90;;
22632;SDS011;11483;55.828;37.488;2024-03-06T00:24:11;2.33;;;1.00;;
22632;SDS011;11483;55.828;37.488;2024-03-06T00:26:39;3.33;;;1.33;;
22632;SDS011;11483;55.828;37.488;2024-03-06T00:29:09;1.40;;;1.07;;
22632;SDS011;11483;55.828;37.488;2024-03-06T00:31:37;3.03;;;1.13;;
22632;SDS011;11483;55.828;37.488;2024-03-06T00:34:08;2.40;;;1.07;;
22632;SDS011;11483;55.828;37.488;2024-03-06T00:36:34;1.63;;;1.20;;
22632;SDS011;11483;55.828;37.488;2024-03-06T00:39:00;1.43;;;1.13;;
22632;SDS011;11483;55.828;37.488;2024-03-06T00:41:26;2.10;;;1.30;;
22632;SDS011;11483;55.828;37.488;2024-03-06T00:43:52;1.33;;;1.10;;
22632;SDS011;11483;55.828;37.488;2024-03-06T00:46:18;4.90;;;1.10;;
22632;SDS011;11483;55.828;37.488;2024-03-06T00:48:43;3.57;;;1.73;;
22632;SDS011;11483;55.828;37.488;2024-03-06T00:51:09;1.60;;;1.20;;
22632;SDS011;11483;55.828;37.488;2024-03-06T00:53:35;6.33;;;1.40;;
22632;SDS011;11483;55.828;37.488;2024-03-06T00:56:01;3.43;;;1.37;;
22632;SDS011;11483;55.828;37.488;2024-03-06T00:58:28;3.07;;;1.30;;
22632;SDS011;11483;55.828;37.488;2024-03-06T01:00:54;1.33;;;0.97;;
22632;SDS011;11483;55.828;37.488;2024-03-06T01:03:20;3.93;;;1.40;;
22632;SDS011;11483;55.828;37.488;2024-03-06T01:05:45;2.73;;;1.23;;
22632;SDS011;11483;55.828;37.488;2024-03-06T01:08:11;2.27;;;1.30;;
22632;SDS011;11483;55.828;37.488;2024-03-06T01:10:37;1.93;;;1.27;;
22632;SDS011;11483;55.828;37.488;2024-03-06T01:13:03;2.43;;;0.93;;
22632;SDS011;11483;55.828;37.488;2024-03-06T01:15:29;2.70;;;1.20;;
22632;SDS011;11483;55.828;37.488;2024-03-06T01:17:55;4.57;;;1.07;;
22632;SDS011;11483;55.828;37.488;2024-03-06T01:20:22;3.13;;;1.20;;
22632;SDS011;11483;55.828;37.488;2024-03-06T01:22:48;5.83;;;1.30;;
22632;SDS011;11483;55.828;37.488;2024-03-06T01:25:14;2.70;;;1.20;;
22632;SDS011;11483;55.828;37.488;2024-03-06T01:27:40;3.10;;;1.00;;
22632;SDS011;11483;55.828;37.488;2024-03-06T01:30:06;4.50;;;1.30;;
22632;SDS011;11483;55.828;37.488;2024-03-06T01:32:32;4.57;;;1.13;;
22632;SDS011;11483;55.828;37.488;2024-03-06T01:34:59;3.33;;;1.00;;
22632;SDS011;11483;55.828;37.488;2024-03-06T01:37:25;1.90;;;0.93;;
22632;SDS011;11483;55.828;37.488;2024-03-06T01:39:51;3.67;;;1.20;;
22632;SDS011;11483;55.828;37.488;2024-03-06T01:42:17;4.43;;;1.33;;
22632;SDS011;11483;55.828;37.488;2024-03-06T01:44:43;3.43;;;1.03;;
22632;SDS011;11483;55.828;37.488;2024-03-06T01:47:09;3.30;;;1.53;;
22632;SDS011;11483;55.828;37.488;2024-03-06T01:49:35;2.17;;;1.10;;
22632;SDS011;11483;55.828;37.488;2024-03-06T01:52:01;2.53;;;1.10;;
22632;SDS011;11483;55.828;37.488;2024-03-06T01:54:28;5.00;;;1.20;;
22632;SDS011;11483;55.828;37.488;2024-03-06T01:56:56;2.47;;;1.27;;
22632;SDS011;11483;55.828;37.488;2024-03-06T01:59:26;1.90;;;1.07;;
22632;SDS011;11483;55.828;37.488;2024-03-06T02:01:53;4.20;;;1.50;;
22632;SDS011;11483;55.828;37.488;2024-03-06T02:04:19;1.73;;;1.27;;
22632;SDS011;11483;55.828;37.488;2024-03-06T02:06:45;1.43;;;1.10;;
22632;SDS011;11483;55.828;37.488;2024-03-06T02:09:12;7.57;;;1.63;;
22632;SDS011;11483;55.828;37.488;2024-03-06T02:11:39;3.73;;;2.10;;
22632;SDS011;11483;55.828;37.488;2024-03-06T02:14:06;5.70;;;1.17;;
22632;SDS011;11483;55.828;37.488;2024-03-06T02:16:35;3.17;;;1.30;;
22632;SDS011;11483;55.828;37.488;2024-03-06T02:19:01;2.40;;;1.40;;
22632;SDS011;11483;55.828;37.488;2024-03-06T02:21:28;5.57;;;1.80;;
22632;SDS011;11483;55.828;37.488;2024-03-06T02:23:54;2.20;;;1.10;;
22632;SDS011;11483;55.828;37.488;2024-03-06T02:26:20;5.37;;;1.43;;
22632;SDS011;11483;55.828;37.488;2024-03-06T02:28:47;2.77;;;1.23;;
22632;SDS011;11483;55.828;37.488;2024-03-06T02:31:18;6.93;;;1.70;;
22632;SDS011;11483;55.828;37.488;2024-03-06T02:33:45;3.87;;;1.60;;
22632;SDS011;11483;55.828;37.488;2024-03-06T02:36:18;6.60;;;1.60;;
22632;SDS011;11483;55.828;37.488;2024-03-06T02:38:44;4.70;;;1.27;;
22632;SDS011;11483;55.828;37.488;2024-03-06T02:41:10;3.00;;;1.57;;
22632;SDS011;11483;55.828;37.488;2024-03-06T02:43:37;3.30;;;1.57;;
22632;SDS011;11483;55.828;37.488;2024-03-06T02:46:03;3.23;;;1.70;;
22632;SDS011;11483;55.828;37.488;2024-03-06T02:48:29;3.10;;;1.13;;
22632;SDS011;11483;55.828;37.488;2024-03-06T02:50:56;2.37;;;1.10;;
22632;SDS011;11483;55.828;37.488;2024-03-06T02:53:22;3.27;;;1.50;;
22632;SDS011;11483;55.828;37.488;2024-03-06T02:55:48;3.13;;;1.60;;
22632;SDS011;11483;55.828;37.488;2024-03-06T02:58:14;1.67;;;1.30;;
22632;SDS011;11483;55.828;37.488;2024-03-06T03:00:41;2.43;;;1.37;;
22632;SDS011;11483;55.828;37.488;2024-03-06T03:03:08;2.17;;;1.40;;
22632;SDS011;11483;55.828;37.488;2024-03-06T03:05:37;4.70;;;2.07;;
22632;SDS011;11483;55.828;37.488;2024-03-06T03:08:04;3.17;;;1.50;;
22632;SDS011;11483;55.828;37.488;2024-03-06T03:10:30;2.83;;;1.50;;
22632;SDS011;11483;55.828;37.488;2024-03-06T03:12:56;4.43;;;1.30;;
22632;SDS011;11483;55.828;37.488;2024-03-06T03:15:22;3.47;;;1.80;;
22632;SDS011;11483;55.828;37.488;2024-03-06T03:17:48;2.13;;;1.37;;
22632;SDS011;11483;55.828;37.488;2024-03-06T03:20:14;5.97;;;1.47;;
22632;SDS011;11483;55.828;37.488;2024-03-06T03:22:42;3.30;;;1.60;;
22632;SDS011;11483;55.828;37.488;2024-03-06T03:25:12;3.07;;;1.43;;
22632;SDS011;11483;55.828;37.488;2024-03-06T03:27:39;4.80;;;1.43;;
22632;SDS011;11483;55.828;37.488;2024-03-06T03:30:14;3.63;;;1.63;;
22632;SDS011;11483;55.828;37.488;2024-03-06T03:32:41;7.87;;;1.90;;
22632;SDS011;11483;55.828;37.488;2024-03-06T03:35:07;3.60;;;1.60;;
22632;SDS011;11483;55.828;37.488;2024-03-06T03:37:33;4.57;;;1.60;;
22632;SDS011;11483;55.828;37.488;2024-03-06T03:39:59;3.23;;;1.60;;
22632;SDS011;11483;55.828;37.488;2024-03-06T03:42:25;4.93;;;1.73;;
22632;SDS011;11483;55.828;37.488;2024-03-06T03:44:51;3.17;;;1.47;;
22632;SDS011;11483;55.828;37.488;2024-03-06T03:47:17;4.80;;;1.30;;
22632;SDS011;11483;55.828;37.488;2024-03-06T03:49:43;9.90;;;1.60;;
22632;SDS011;11483;55.828;37.488;2024-03-06T03:52:11;9.63;;;1.90;;
22632;SDS011;11483;55.828;37.488;2024-03-06T03:54:39;9.57;;;1.90;;
22632;SDS011;11483;55.828;37.488;2024-03-06T03:57:05;5.37;;;1.40;;
22632;SDS011;11483;55.828;37.488;2024-03-06T03:59:32;7.63;;;1.63;;
22632;SDS011;11483;55.828;37.488;2024-03-06T04:01:58;4.17;;;1.80;;
22632;SDS011;11483;55.828;37.488;2024-03-06T04:04:24;6.90;;;1.83;;
22632;SDS011;11483;55.828;37.488;2024-03-06T04:06:49;3.87;;;1.67;;
22632;SDS011;11483;55.828;37.488;2024-03-06T04:09:16;2.43;;;1.37;;
22632;SDS011;11483;55.828;37.488;2024-03-06T04:11:41;4.90;;;1.70;;
22632;SDS011;11483;55.828;37.488;2024-03-06T04:14:07;5.10;;;1.87;;
22632;SDS011;11483;55.828;37.488;2024-03-06T04:16:34;2.70;;;1.67;;
22632;SDS011;11483;55.828;37.488;2024-03-06T04:19:00;2.77;;;1.43;;
22632;SDS011;11483;55.828;37.488;2024-03-06T04:21:26;1.90;;;1.43;;
22632;SDS011;11483;55.828;37.488;2024-03-06T04:23:52;3.17;;;1.63;;
22632;SDS011;11483;55.828;37.488;2024-03-06T04:26:18;3.87;;;1.73;;
22632;SDS011;11483;55.828;37.488;2024-03-06T04:28:45;3.13;;;1.60;;
22632;SDS011;11483;55.828;37.488;2024-03-06T04:31:11;3.47;;;1.57;;
22632;SDS011;11483;55.828;37.488;2024-03-06T04:33:37;2.23;;;1.47;;
22632;SDS011;11483;55.828;37.488;2024-03-06T04:36:03;3.40;;;1.50;;
22632;SDS011;11483;55.828;37.488;2024-03-06T04:38:33;4.93;;;1.70;;
22632;SDS011;11483;55.828;37.488;2024-03-06T04:40:59;11.23;;;1.73;;
22632;SDS011;11483;55.828;37.488;2024-03-06T04:43:25;4.33;;;1.67;;
22632;SDS011;11483;55.828;37.488;2024-03-06T04:45:51;5.10;;;1.63;;
22632;SDS011;11483;55.828;37.488;2024-03-06T04:48:17;7.77;;;2.23;;
22632;SDS011;11483;55.828;37.488;2024-03-06T04:50:43;11.43;;;2.03;;
22632;SDS011;11483;55.828;37.488;2024-03-06T04:53:09;3.53;;;1.50;;
22632;SDS011;11483;55.828;37.488;2024-03-06T04:55:36;4.13;;;1.90;;
22632;SDS011;11483;55.828;37.488;2024-03-06T04:58:03;5.67;;;1.90;;
22632;SDS011;11483;55.828;37.488;2024-03-06T05:00:29;4.03;;;2.03;;
22632;SDS011;11483;55.828;37.488;2024-03-06T05:02:55;4.20;;;1.93;;
22632;SDS011;11483;55.828;37.488;2024-03-06T05:05:21;16.50;;;3.23;;
22632;SDS011;11483;55.828;37.488;2024-03-06T05:07:48;3.63;;;1.90;;
22632;SDS011;11483;55.828;37.488;2024-03-06T05:10:14;3.70;;;1.80;;
22632;SDS011;11483;55.828;37.488;2024-03-06T05:12:41;3.23;;;1.63;;
22632;SDS011;11483;55.828;37.488;2024-03-06T05:15:08;6.30;;;2.10;;
22632;SDS011;11483;55.828;37.488;2024-03-06T05:17:35;12.87;;;2.03;;
22632;SDS011;11483;55.828;37.488;2024-03-06T05:20:01;6.20;;;2.50;;
22632;SDS011;11483;55.828;37.488;2024-03-06T05:22:28;6.80;;;1.83;;
22632;SDS011;11483;55.828;37.488;2024-03-06T05:24:54;4.77;;;2.17;;
22632;SDS011;11483;55.828;37.488;2024-03-06T05:27:21;6.07;;;2.00;;
22632;SDS011;11483;55.828;37.488;2024-03-06T05:29:47;3.43;;;1.90;;
22632;SDS011;11483;55.828;37.488;2024-03-06T05:32:13;4.77;;;2.03;;
22632;SDS011;11483;55.828;37.488;2024-03-06T05:34:39;7.97;;;2.20;;
22632;SDS011;11483;55.828;37.488;2024-03-06T05:37:05;14.10;;;2.33;;
22632;SDS011;11483;55.828;37.488;2024-03-06T05:39:31;5.63;;;2.43;;
22632;SDS011;11483;55.828;37.488;2024-03-06T05:42:01;5.40;;;2.17;;
22632;SDS011;11483;55.828;37.488;2024-03-06T05:44:30;9.33;;;2.23;;
22632;SDS011;11483;55.828;37.488;2024-03-06T05:47:00;8.53;;;2.00;;
22632;SDS011;11483;55.828;37.488;2024-03-06T05:49:27;3.97;;;2.10;;
22632;SDS011;11483;55.828;37.488;2024-03-06T05:51:53;15.70;;;2.30;;
22632;SDS011;11483;55.828;37.488;2024-03-06T05:54:20;5.47;;;2.20;;
22632;SDS011;11483;55.828;37.488;2024-03-06T05:56:49;6.00;;;1.97;;
22632;SDS011;11483;55.828;37.488;2024-03-06T05:59:16;7.73;;;2.23;;
22632;SDS011;11483;55.828;37.488;2024-03-06T06:01:43;3.17;;;1.60;;
22632;SDS011;11483;55.828;37.488;2024-03-06T06:04:09;7.53;;;2.33;;
22632;SDS011;11483;55.828;37.488;2024-03-06T06:06:36;8.80;;;2.83;;
22632;SDS011;11483;55.828;37.488;2024-03-06T06:09:02;5.93;;;2.13;;
22632;SDS011;11483;55.828;37.488;2024-03-06T06:11:31;7.23;;;2.30;;
22632;SDS011;11483;55.828;37.488;2024-03-06T06:13:58;5.27;;;2.47;;
22632;SDS011;11483;55.828;37.488;2024-03-06T06:16:24;8.80;;;3.00;;
22632;SDS011;11483;55.828;37.488;2024-03-06T06:18:50;12.37;;;2.80;;
22632;SDS011;11483;55.828;37.488;2024-03-06T06:21:17;18.83;;;2.60;;
22632;SDS011;11483;55.828;37.488;2024-03-06T06:23:43;5.37;;;2.40;;
22632;SDS011;11483;55.828;37.488;2024-03-06T06:26:10;4.53;;;2.40;;
22632;SDS011;11483;55.828;37.488;2024-03-06T06:28:36;13.97;;;2.80;;
22632;SDS011;11483;55.828;37.488;2024-03-06T06:31:02;7.13;;;2.73;;
22632;SDS011;11483;55.828;37.488;2024-03-06T06:33:29;4.63;;;2.23;;
22632;SDS011;11483;55.828;37.488;2024-03-06T06:35:55;10.40;;;2.07;;
22632;SDS011;11483;55.828;37.488;2024-03-06T06:38:21;11.63;;;3.03;;
22632;SDS011;11483;55.828;37.488;2024-03-06T06:40:47;14.10;;;2.50;;
22632;SDS011;11483;55.828;37.488;2024-03-06T06:43:13;15.37;;;2.40;;
22632;SDS011;11483;55.828;37.488;2024-03-06T06:45:40;9.27;;;2.23;;
22632;SDS011;11483;55.828;37.488;2024-03-06T06:48:07;7.20;;;2.40;;
22632;SDS011;11483;55.828;37.488;2024-03-06T06:50:34;7.13;;;2.30;;
22632;SDS011;11483;55.828;37.488;2024-03-06T06:53:00;10.80;;;3.30;;
22632;SDS011;11483;55.828;37.488;2024-03-06T06:55:26;5.17;;;2.17;;
22632;SDS011;11483;55.828;37.488;2024-03-06T06:57:52;11.70;;;2.67;;
22632;SDS011;11483;55.828;37.488;2024-03-06T07:00:18;6.63;;;2.50;;
22632;SDS011;11483;55.828;37.488;2024-03-06T07:02:47;11.13;;;1.90;;
22632;SDS011;11483;55.828;37.488;2024-03-06T07:05:13;7.93;;;2.30;;
22632;SDS011;11483;55.828;37.488;2024-03-06T07:07:39;6.80;;;2.37;;
22632;SDS011;11483;55.828;37.488;2024-03-06T07:10:06;14.50;;;2.67;;
22632;SDS011;11483;55.828;37.488;2024-03-06T07:12:33;17.50;;;3.37;;
22632;SDS011;11483;55.828;37.488;2024-03-06T07:14:59;12.13;;;2.67;;
22632;SDS011;11483;55.828;37.488;2024-03-06T07:17:25;8.57;;;2.77;;
22632;SDS011;11483;55.828;37.488;2024-03-06T07:19:51;8.10;;;2.90;;
22632;SDS011;11483;55.828;37.488;2024-03-06T07:22:18;12.97;;;2.90;;
22632;SDS011;11483;55.828;37.488;2024-03-06T07:24:44;11.77;;;2.60;;
22632;SDS011;11483;55.828;37.488;2024-03-06T07:27:10;7.60;;;2.30;;
22632;SDS011;11483;55.828;37.488;2024-03-06T07:29:37;7.43;;;2.50;;
22632;SDS011;11483;55.828;37.488;2024-03-06T07:32:03;6.57;;;1.70;;
22632;SDS011;11483;55.828;37.488;2024-03-06T07:34:32;8.40;;;2.73;;
22632;SDS011;11483;55.828;37.488;2024-03-06T07:36:58;11.77;;;2.90;;
22632;SDS011;11483;55.828;37.488;2024-03-06T07:39:25;11.93;;;2.50;;
22632;SDS011;11483;55.828;37.488;2024-03-06T07:41:51;6.97;;;2.30;;
22632;SDS011;11483;55.828;37.488;2024-03-06T07:44:17;8.03;;;2.27;;
22632;SDS011;11483;55.828;37.488;2024-03-06T07:46:43;14.17;;;2.77;;
22632;SDS011;11483;55.828;37.488;2024-03-06T07:49:08;12.60;;;2.47;;
22632;SDS011;11483;55.828;37.488;2024-03-06T07:51:34;7.80;;;2.60;;
22632;SDS011;11483;55.828;37.488;2024-03-06T07:54:03;15.50;;;2.67;;
22632;SDS011;11483;55.828;37.488;2024-03-06T07:56:29;8.93;;;2.77;;
22632;SDS011;11483;55.828;37.488;2024-03-06T07:58:55;7.43;;;2.50;;
22632;SDS011;11483;55.828;37.488;2024-03-06T08:01:21;9.37;;;2.43;;
22632;SDS011;11483;55.828;37.488;2024-03-06T08:03:48;11.47;;;2.57;;
22632;SDS011;11483;55.828;37.488;2024-03-06T08:06:14;8.57;;;2.40;;
22632;SDS011;11483;55.828;37.488;2024-03-06T08:08:41;7.53;;;2.50;;
22632;SDS011;11483;55.828;37.488;2024-03-06T08:11:09;9.10;;;2.63;;
22632;SDS011;11483;55.828;37.488;2024-03-06T08:13:36;6.47;;;2.20;;
22632;SDS011;11483;55.828;37.488;2024-03-06T08:16:03;8.50;;;2.43;;
22632;SDS011;11483;55.828;37.488;2024-03-06T08:18:29;11.33;;;2.60;;
22632;SDS011;11483;55.828;37.488;2024-03-06T08:20:56;11.70;;;2.77;;
22632;SDS011;11483;55.828;37.488;2024-03-06T08:23:22;7.67;;;2.73;;
22632;SDS011;11483;55.828;37.488;2024-03-06T08:25:48;13.93;;;2.60;;
22632;SDS011;11483;55.828;37.488;2024-03-06T08:28:14;8.67;;;2.70;;
22632;SDS011;11483;55.828;37.488;2024-03-06T08:30:40;11.03;;;3.53;;
22632;SDS011;11483;55.828;37.488;2024-03-06T08:33:07;6.40;;;2.60;;
22632;SDS011;11483;55.828;37.488;2024-03-06T08:35:33;9.13;;;2.90;;
22632;SDS011;11483;55.828;37.488;2024-03-06T08:37:59;9.67;;;2.73;;
22632;SDS011;11483;55.828;37.488;2024-03-06T08:40:25;9.00;;;2.70;;
22632;SDS011;11483;55.828;37.488;2024-03-06T08:42:52;10.53;;;2.90;;
22632;SDS011;11483;55.828;37.488;2024-03-06T08:45:19;11.57;;;2.90;;
22632;SDS011;11483;55.828;37.488;2024-03-06T08:47:45;13.27;;;3.03;;
22632;SDS011;11483;55.828;37.488;2024-03-06T08:50:13;10.57;;;2.53;;
22632;SDS011;11483;55.828;37.488;2024-03-06T08:52:39;10.52;;;3.70;;
22632;SDS011;11483;55.828;37.488;2024-03-06T08:55:06;7.60;;;3.03;;
22632;SDS011;11483;55.828;37.488;2024-03-06T08:57:33;7.90;;;3.37;;
22632;SDS011;11483;55.828;37.488;2024-03-06T08:59:59;8.97;;;2.53;;
22632;SDS011;11483;55.828;37.488;2024-03-06T09:02:25;6.90;;;2.83;;
22632;SDS011;11483;55.828;37.488;2024-03-06T09:04:51;18.33;;;2.70;;
22632;SDS011;11483;55.828;37.488;2024-03-06T09:07:18;7.43;;;2.50;;
22632;SDS011;11483;55.828;37.488;2024-03-06T09:09:45;8.63;;;2.33;;
22632;SDS011;11483;55.828;37.488;2024-03-06T09:12:11;10.37;;;2.67;;
22632;SDS011;11483;55.828;37.488;2024-03-06T09:14:37;15.97;;;2.80;;
22632;SDS011;11483;55.828;37.488;2024-03-06T09:17:04;8.63;;;3.07;;
22632;SDS011;11483;55.828;37.488;2024-03-06T09:19:31;14.13;;;3.00;;
22632;SDS011;11483;55.828;37.488;2024-03-06T09:21:58;17.80;;;2.80;;
22632;SDS011;11483;55.828;37.488;2024-03-06T09:24:24;7.83;;;2.97;;
22632;SDS011;11483;55.828;37.488;2024-03-06T09:27:09;13.53;;;3.30;;
22632;SDS011;11483;55.828;37.488;2024-03-06T09:29:35;8.40;;;2.87;;
22632;SDS011;11483;55.828;37.488;2024-03-06T09:32:01;10.87;;;3.30;;
22632;SDS011;11483;55.828;37.488;2024-03-06T09:34:27;8.27;;;3.00;;
22632;SDS011;11483;55.828;37.488;2024-03-06T09:36:53;9.80;;;3.20;;
22632;SDS011;11483;55.828;37.488;2024-03-06T09:39:19;7.80;;;2.73;;
22632;SDS011;11483;55.828;37.488;2024-03-06T09:41:48;6.77;;;2.50;;
22632;SDS011;11483;55.828;37.488;2024-03-06T09:44:15;6.70;;;3.50;;
22632;SDS011;11483;55.828;37.488;2024-03-06T09:46:45;14.83;;;2.17;;
22632;SDS011;11483;55.828;37.488;2024-03-06T09:49:16;10.33;;;2.90;;
22632;SDS011;11483;55.828;37.488;2024-03-06T09:51:44;6.90;;;2.47;;
22632;SDS011;11483;55.828;37.488;2024-03-06T09:54:12;10.13;;;2.47;;
22632;SDS011;11483;55.828;37.488;2024-03-06T09:56:48;15.97;;;2.80;;
22632;SDS011;11483;55.828;37.488;2024-03-06T09:59:15;8.67;;;2.77;;
22632;SDS011;11483;55.828;37.488;2024-03-06T10:01:54;4.43;;;2.43;;
22632;SDS011;11483;55.828;37.488;2024-03-06T10:04:27;8.73;;;2.80;;
22632;SDS011;11483;55.828;37.488;2024-03-06T10:06:55;15.20;;;3.37;;
22632;SDS011;11483;55.828;37.488;2024-03-06T10:09:22;7.33;;;2.67;;
22632;SDS011;11483;55.828;37.488;2024-03-06T10:11:48;10.23;;;2.63;;
22632;SDS011;11483;55.828;37.488;2024-03-06T10:14:18;13.03;;;2.40;;
22632;SDS011;11483;55.828;37.488;2024-03-06T10:16:53;7.03;;;3.00;;
22632;SDS011;11483;55.828;37.488;2024-03-06T10:19:24;11.77;;;2.63;;
22632;SDS011;11483;55.828;37.488;2024-03-06T10:21:53;9.47;;;2.30;;
22632;SDS011;11483;55.828;37.488;2024-03-06T10:24:20;8.80;;;2.03;;
22632;SDS011;11483;55.828;37.488;2024-03-06T10:26:49;7.17;;;2.13;;
22632;SDS011;11483;55.828;37.488;2024-03-06T10:29:24;5.57;;;2.20;;
22632;SDS011;11483;55.828;37.488;2024-03-06T10:31:52;9.60;;;2.60;;
22632;SDS011;11483;55.828;37.488;2024-03-06T10:34:24;12.10;;;2.67;;
22632;SDS011;11483;55.828;37.488;2024-03-06T10:39:18;12.85;;;3.72;;
22632;SDS011;11483;55.828;37.488;2024-03-06T10:41:45;6.68;;;2.85;;
22632;SDS011;11483;55.828;37.488;2024-03-06T10:44:16;7.38;;;2.67;;
22632;SDS011;11483;55.828;37.488;2024-03-06T10:46:51;10.52;;;2.97;;
22632;SDS011;11483;55.828;37.488;2024-03-06T10:49:23;6.53;;;2.72;;
22632;SDS011;11483;55.828;37.488;2024-03-06T10:51:51;8.68;;;2.70;;
22632;SDS011;11483;55.828;37.488;2024-03-06T10:54:19;5.78;;;3.10;;
22632;SDS011;11483;55.828;37.488;2024-03-06T10:56:46;20.75;;;2.78;;
22632;SDS011;11483;55.828;37.488;2024-03-06T10:59:12;3.95;;;2.65;;
22632;SDS011;11483;55.828;37.488;2024-03-06T11:01:41;4.47;;;2.55;;
22632;SDS011;11483;55.828;37.488;2024-03-06T11:04:09;7.60;;;2.47;;
22632;SDS011;11483;55.828;37.488;2024-03-06T11:06:36;9.40;;;2.45;;
22632;SDS011;11483;55.828;37.488;2024-03-06T11:09:03;8.45;;;2.45;;
22632;SDS011;11483;55.828;37.488;2024-03-06T11:11:29;6.60;;;2.78;;
22632;SDS011;11483;55.828;37.488;2024-03-06T11:14:14;6.03;;;2.55;;
22632;SDS011;11483;55.828;37.488;2024-03-06T11:16:59;5.75;;;2.70;;
22632;SDS011;11483;55.828;37.488;2024-03-06T11:28:37;10.25;;;2.70;;
22632;SDS011;11483;55.828;37.488;2024-03-06T11:31:09;11.25;;;2.42;;
22632;SDS011;11483;55.828;37.488;2024-03-06T11:33:45;9.02;;;2.60;;
22632;SDS011;11483;55.828;37.488;2024-03-06T11:41:31;4.53;;;2.42;;
22632;SDS011;11483;55.828;37.488;2024-03-06T11:44:15;8.80;;;2.33;;
22632;SDS011;11483;55.828;37.488;2024-03-06T11:46:42;5.10;;;2.45;;
22632;SDS011;11483;55.828;37.488;2024-03-06T11:49:16;6.40;;;2.47;;
22632;SDS011;11483;55.828;37.488;2024-03-06T11:51:45;9.45;;;2.50;;
22632;SDS011;11483;55.828;37.488;2024-03-06T11:54:12;3.60;;;2.40;;
22632;SDS011;11483;55.828;37.488;2024-03-06T11:56:43;12.02;;;2.30;;
22632;SDS011;11483;55.828;37.488;2024-03-06T11:59:10;6.45;;;2.35;;
22632;SDS011;11483;55.828;37.488;2024-03-06T12:01:37;7.93;;;2.50;;
22632;SDS011;11483;55.828;37.488;2024-03-06T12:04:03;10.95;;;2.67;;
22632;SDS011;11483;55.828;37.488;2024-03-06T12:06:32;3.22;;;2.00;;
22632;SDS011;11483;55.828;37.488;2024-03-06T12:08:58;7.30;;;2.38;;
22632;SDS011;11483;55.828;37.488;2024-03-06T12:11:24;8.88;;;2.60;;
22632;SDS011;11483;55.828;37.488;2024-03-06T12:13:54;3.85;;;2.20;;
22632;SDS011;11483;55.828;37.488;2024-03-06T12:16:21;10.25;;;2.25;;
22632;SDS011;11483;55.828;37.488;2024-03-06T12:18:52;10.02;;;2.20;;
22632;SDS011;11483;55.828;37.488;2024-03-06T12:21:32;6.60;;;2.25;;
22632;SDS011;11483;55.828;37.488;2024-03-06T12:24:05;5.38;;;1.83;;
22632;SDS011;11483;55.828;37.488;2024-03-06T12:27:01;7.90;;;1.70;;
22632;SDS011;11483;55.828;37.488;2024-03-06T12:29:31;7.13;;;2.08;;
22632;SDS011;11483;55.828;37.488;2024-03-06T12:31:58;6.50;;;2.05;;
22632;SDS011;11483;55.828;37.488;2024-03-06T12:34:25;3.65;;;1.77;;
22632;SDS011;11483;55.828;37.488;2024-03-06T12:36:51;3.58;;;2.17;;
22632;SDS011;11483;55.828;37.488;2024-03-06T12:39:17;6.35;;;2.25;;
22632;SDS011;11483;55.828;37.488;2024-03-06T12:41:46;3.63;;;1.73;;
22632;SDS011;11483;55.828;37.488;2024-03-06T12:44:12;4.38;;;2.08;;
22632;SDS011;11483;55.828;37.488;2024-03-06T12:46:40;3.97;;;2.22;;
22632;SDS011;11483;55.828;37.488;2024-03-06T12:49:06;7.13;;;1.80;;
22632;SDS011;11483;55.828;37.488;2024-03-06T12:51:32;4.10;;;2.05;;
22632;SDS011;11483;55.828;37.488;2024-03-06T12:53:58;7.18;;;2.22;;
22632;SDS011;11483;55.828;37.488;2024-03-06T12:56:26;3.38;;;1.90;;
22632;SDS011;11483;55.828;37.488;2024-03-06T12:58:52;3.30;;;1.63;;
22632;SDS011;11483;55.828;37.488;2024-03-06T13:01:18;5.32;;;1.85;;
22632;SDS011;11483;55.828;37.488;2024-03-06T13:03:45;4.90;;;1.90;;
22632;SDS011;11483;55.828;37.488;2024-03-06T13:06:11;4.83;;;1.87;;
22632;SDS011;11483;55.828;37.488;2024-03-06T13:08:37;3.23;;;1.60;;
22632;SDS011;11483;55.828;37.488;2024-03-06T13:11:03;8.47;;;2.03;;
22632;SDS011;11483;55.828;37.488;2024-03-06T13:13:29;5.50;;;1.77;;
22632;SDS011;11483;55.828;37.488;2024-03-06T13:15:58;5.37;;;1.67;;
22632;SDS011;11483;55.828;37.488;2024-03-06T13:18:24;1.53;;;1.20;;
22632;SDS011;11483;55.828;37.488;2024-03-06T13:20:51;4.87;;;1.20;;
22632;SDS011;11483;55.828;37.488;2024-03-06T13:23:17;3.53;;;0.93;;
22632;SDS011;11483;55.828;37.488;2024-03-06T13:25:44;2.07;;;1.07;;
22632;SDS011;11483;55.828;37.488;2024-03-06T13:28:11;3.77;;;1.10;;
22632;SDS011;11483;55.828;37.488;2024-03-06T13:30:38;5.67;;;1.40;;
22632;SDS011;11483;55.828;37.488;2024-03-06T13:33:05;3.60;;;1.30;;
22632;SDS011;11483;55.828;37.488;2024-03-06T13:35:32;2.30;;;1.33;;
22632;SDS011;11483;55.828;37.488;2024-03-06T13:37:58;2.80;;;1.80;;
22632;SDS011;11483;55.828;37.488;2024-03-06T13:40:24;8.35;;;1.60;;
22632;SDS011;11483;55.828;37.488;2024-03-06T13:42:52;4.43;;;2.17;;
22632;SDS011;11483;55.828;37.488;2024-03-06T13:45:18;7.93;;;1.65;;
22632;SDS011;11483;55.828;37.488;2024-03-06T13:47:44;3.90;;;1.58;;
22632;SDS011;11483;55.828;37.488;2024-03-06T13:50:14;6.07;;;1.80;;
22632;SDS011;11483;55.828;37.488;2024-03-06T13:52:41;4.53;;;1.90;;
22632;SDS011;11483;55.828;37.488;2024-03-06T13:55:07;5.10;;;1.92;;
22632;SDS011;11483;55.828;37.488;2024-03-06T13:57:34;3.78;;;1.88;;
22632;SDS011;11483;55.828;37.488;2024-03-06T14:00:08;3.22;;;1.90;;
22632;SDS011;11483;55.828;37.488;2024-03-06T14:02:38;2.47;;;1.80;;
22632;SDS011;11483;55.828;37.488;2024-03-06T14:05:05;7.03;;;1.92;;
22632;SDS011;11483;55.828;37.488;2024-03-06T14:07:31;7.60;;;2.17;;
22632;SDS011;11483;55.828;37.488;2024-03-06T14:09:58;5.85;;;1.73;;
22632;SDS011;11483;55.828;37.488;2024-03-06T14:12:24;5.43;;;2.05;;
22632;SDS011;11483;55.828;37.488;2024-03-06T14:14:50;4.15;;;1.58;;
22632;SDS011;11483;55.828;37.488;2024-03-06T14:17:16;4.13;;;1.58;;
22632;SDS011;11483;55.828;37.488;2024-03-06T14:19:42;4.30;;;1.73;;
22632;SDS011;11483;55.828;37.488;2024-03-06T14:22:10;4.22;;;2.08;;
22632;SDS011;11483;55.828;37.488;2024-03-06T14:24:35;6.00;;;1.95;;
22632;SDS011;11483;55.828;37.488;2024-03-06T14:27:02;4.72;;;1.77;;
22632;SDS011;11483;55.828;37.488;2024-03-06T14:29:28;5.63;;;1.55;;
22632;SDS011;11483;55.828;37.488;2024-03-06T14:31:57;7.97;;;1.63;;
22632;SDS011;11483;55.828;37.488;2024-03-06T14:34:24;3.28;;;1.73;;
22632;SDS011;11483;55.828;37.488;2024-03-06T14:36:50;2.97;;;1.60;;
22632;SDS011;11483;55.828;37.488;2024-03-06T14:39:17;4.57;;;1.58;;
22632;SDS011;11483;55.828;37.488;2024-03-06T14:41:43;4.65;;;1.65;;
22632;SDS011;11483;55.828;37.488;2024-03-06T14:44:12;7.10;;;1.80;;
22632;SDS011;11483;55.828;37.488;2024-03-06T14:46:39;2.85;;;1.40;;
22632;SDS011;11483;55.828;37.488;2024-03-06T14:49:06;3.20;;;1.58;;
22632;SDS011;11483;55.828;37.488;2024-03-06T14:51:32;6.05;;;2.00;;